sensor_id;sensor_type;location;lat;lon;timestamp;pressure;altitude;pressure_sealevel;temperature;humidity
46768;BME280;69007;48.978;18.066;2023-04-23T00:01:06;97253.59;;;11.01;79.20
46768;BME280;69007;48.978;18.066;2023-04-23T00:03:33;97237.03;;;10.77;79.80
46768;BME280;69007;48.978;18.066;2023-04-23T00:06:09;97233.53;;;10.72;80.14
46768;BME280;69007;48.978;18.066;2023-04-23T00:08:41;97231.63;;;10.67;79.89
46768;BME280;69007;48.978;18.066;2023-04-23T00:11:08;97242.47;;;10.77;79.12
46768;BME280;69007;48.978;18.066;2023-04-23T00:13:34;97245.75;;;10.84;78.72
46768;BME280;69007;48.978;18.066;2023-04-23T00:16:00;97237.59;;;10.84;78.31
46768;BME280;69007;48.978;18.066;2023-04-23T00:18:25;97227.28;;;10.71;78.47
46768;BME280;69007;48.978;18.066;2023-04-23T00:20:51;97232.69;;;10.81;78.52
46768;BME280;69007;48.978;18.066;2023-04-23T00:23:16;97238.13;;;10.81;78.51
46768;BME280;69007;48.978;18.066;2023-04-23T00:25:41;97223.16;;;10.84;78.59
46768;BME280;69007;48.978;18.066;2023-04-23T00:28:07;97240.28;;;10.90;78.68
46768;BME280;69007;48.978;18.066;2023-04-23T00:30:32;97216.63;;;10.85;78.73
46768;BME280;69007;48.978;18.066;2023-04-23T00:32:58;97222.88;;;10.85;78.87
46768;BME280;69007;48.978;18.066;2023-04-23T00:35:23;97237.25;;;11.01;78.73
46768;BME280;69007;48.978;18.066;2023-04-23T00:37:48;97220.69;;;10.87;79.04
46768;BME280;69007;48.978;18.066;2023-04-23T00:40:14;97228.31;;;10.91;79.18
46768;BME280;69007;48.978;18.066;2023-04-23T00:42:39;97231.59;;;10.87;79.32
46768;BME280;69007;48.978;18.066;2023-04-23T00:45:06;97216.88;;;10.88;79.35
46768;BME280;69007;48.978;18.066;2023-04-23T00:47:33;97206.31;;;10.77;79.64
46768;BME280;69007;48.978;18.066;2023-04-23T00:49:59;97218.03;;;10.62;81.05
46768;BME280;69007;48.978;18.066;2023-04-23T00:52:24;97211.81;;;10.41;81.05
46768;BME280;69007;48.978;18.066;2023-04-23T00:54:50;97223.81;;;10.40;80.84
46768;BME280;69007;48.978;18.066;2023-04-23T00:57:15;97226.25;;;10.36;81.90
46768;BME280;69007;48.978;18.066;2023-04-23T00:59:41;97226.78;;;10.43;81.91
46768;BME280;69007;48.978;18.066;2023-04-23T01:02:07;97227.59;;;10.44;81.65
46768;BME280;69007;48.978;18.066;2023-04-23T01:04:34;97227.84;;;10.47;81.59
46768;BME280;69007;48.978;18.066;2023-04-23T01:07:00;97208.28;;;10.30;82.43
46768;BME280;69007;48.978;18.066;2023-04-23T01:09:26;97226.22;;;10.26;82.98
46768;BME280;69007;48.978;18.066;2023-04-23T01:11:52;97224.88;;;10.28;83.17
46768;BME280;69007;48.978;18.066;2023-04-23T01:14:17;97221.03;;;10.29;82.22
46768;BME280;69007;48.978;18.066;2023-04-23T01:16:43;97211.81;;;10.25;82.95
46768;BME280;69007;48.978;18.066;2023-04-23T01:19:09;97212.63;;;10.15;83.44
46768;BME280;69007;48.978;18.066;2023-04-23T01:21:37;97210.47;;;10.12;83.67
46768;BME280;69007;48.978;18.066;2023-04-23T01:24:05;97215.09;;;10.17;83.44
46768;BME280;69007;48.978;18.066;2023-04-23T01:26:31;97214.81;;;10.19;83.69
46768;BME280;69007;48.978;18.066;2023-04-23T01:28:57;97219.69;;;10.06;84.37
46768;BME280;69007;48.978;18.066;2023-04-23T01:31:24;97205.84;;;9.87;85.20
46768;BME280;69007;48.978;18.066;2023-04-23T01:33:50;97216.44;;;9.99;84.62
46768;BME280;69007;48.978;18.066;2023-04-23T01:36:17;97229.78;;;9.95;84.66
46768;BME280;69007;48.978;18.066;2023-04-23T01:38:43;97219.72;;;9.81;85.05
46768;BME280;69007;48.978;18.066;2023-04-23T01:41:08;97210.97;;;9.68;85.68
46768;BME280;69007;48.978;18.066;2023-04-23T01:43:34;97221.88;;;9.78;86.08
46768;BME280;69007;48.978;18.066;2023-04-23T01:46:00;97219.94;;;9.58;87.13
46768;BME280;69007;48.978;18.066;2023-04-23T01:48:26;97224.56;;;9.53;87.33
46768;BME280;69007;48.978;18.066;2023-04-23T01:50:52;97218.03;;;9.49;87.68
46768;BME280;69007;48.978;18.066;2023-04-23T01:53:18;97225.34;;;9.53;87.99
46768;BME280;69007;48.978;18.066;2023-04-23T01:55:46;97218.31;;;9.57;87.68
46768;BME280;69007;48.978;18.066;2023-04-23T01:58:12;97226.47;;;9.63;87.07
46768;BME280;69007;48.978;18.066;2023-04-23T02:00:38;97221.03;;;9.57;87.41
46768;BME280;69007;48.978;18.066;2023-04-23T02:03:03;97209.38;;;9.57;87.48
46768;BME280;69007;48.978;18.066;2023-04-23T02:05:29;97212.63;;;9.59;88.16
46768;BME280;69007;48.978;18.066;2023-04-23T02:07:55;97228.38;;;9.62;87.57
46768;BME280;69007;48.978;18.066;2023-04-23T02:10:21;97200.91;;;9.53;88.57
46768;BME280;69007;48.978;18.066;2023-04-23T02:12:46;97200.63;;;9.45;89.10
46768;BME280;69007;48.978;18.066;2023-04-23T02:15:12;97204.41;;;9.44;88.82
46768;BME280;69007;48.978;18.066;2023-04-23T02:17:38;97201.69;;;9.33;89.30
46768;BME280;69007;48.978;18.066;2023-04-23T02:20:07;97216.91;;;9.39;88.87
46768;BME280;69007;48.978;18.066;2023-04-23T02:22:37;97196.25;;;9.28;89.07
46768;BME280;69007;48.978;18.066;2023-04-23T02:25:04;97220.44;;;9.40;89.24
46768;BME280;69007;48.978;18.066;2023-04-23T02:27:31;97204.91;;;9.20;89.81
46768;BME280;69007;48.978;18.066;2023-04-23T02:29:57;97195.09;;;9.09;90.00
46768;BME280;69007;48.978;18.066;2023-04-23T02:32:23;97187.75;;;8.99;90.72
46768;BME280;69007;48.978;18.066;2023-04-23T02:34:48;97182.03;;;8.95;91.06
46768;BME280;69007;48.978;18.066;2023-04-23T02:37:14;97214.63;;;9.06;90.92
46768;BME280;69007;48.978;18.066;2023-04-23T02:39:39;97203.50;;;9.07;90.40
46768;BME280;69007;48.978;18.066;2023-04-23T02:42:04;97187.75;;;9.04;90.57
46768;BME280;69007;48.978;18.066;2023-04-23T02:44:30;97195.69;;;9.11;90.66
46768;BME280;69007;48.978;18.066;2023-04-23T02:46:55;97186.16;;;9.13;89.99
46768;BME280;69007;48.978;18.066;2023-04-23T02:49:20;97186.72;;;9.15;90.48
46768;BME280;69007;48.978;18.066;2023-04-23T02:51:46;97195.38;;;9.12;90.13
46768;BME280;69007;48.978;18.066;2023-04-23T02:54:12;97193.50;;;9.13;90.25
46768;BME280;69007;48.978;18.066;2023-04-23T02:56:37;97172.84;;;9.07;90.51
46768;BME280;69007;48.978;18.066;2023-04-23T02:59:03;97211.72;;;9.22;90.16
46768;BME280;69007;48.978;18.066;2023-04-23T03:01:28;97184.84;;;9.16;90.03
46768;BME280;69007;48.978;18.066;2023-04-23T03:03:54;97196.50;;;9.21;90.49
46768;BME280;69007;48.978;18.066;2023-04-23T03:06:19;97200.00;;;9.17;91.06
46768;BME280;69007;48.978;18.066;2023-04-23T03:08:45;97197.81;;;9.14;91.39
46768;BME280;69007;48.978;18.066;2023-04-23T03:11:10;97201.91;;;9.11;91.48
46768;BME280;69007;48.978;18.066;2023-04-23T03:13:35;97200.78;;;9.07;92.30
46768;BME280;69007;48.978;18.066;2023-04-23T03:16:01;97186.38;;;8.96;91.89
46768;BME280;69007;48.978;18.066;2023-04-23T03:18:26;97205.69;;;9.05;92.52
46768;BME280;69007;48.978;18.066;2023-04-23T03:20:52;97192.91;;;9.06;92.85
46768;BME280;69007;48.978;18.066;2023-04-23T03:23:17;97194.00;;;8.94;92.79
46768;BME280;69007;48.978;18.066;2023-04-23T03:25:42;97191.16;;;8.74;93.70
46768;BME280;69007;48.978;18.066;2023-04-23T03:28:08;97215.28;;;8.65;94.46
46768;BME280;69007;48.978;18.066;2023-04-23T03:30:33;97212.81;;;8.58;95.12
46768;BME280;69007;48.978;18.066;2023-04-23T03:32:59;97187.00;;;8.51;95.27
46768;BME280;69007;48.978;18.066;2023-04-23T03:35:26;97189.41;;;8.47;95.31
46768;BME280;69007;48.978;18.066;2023-04-23T03:37:52;97212.03;;;8.63;95.57
46768;BME280;69007;48.978;18.066;2023-04-23T03:40:18;97195.75;;;8.63;95.12
46768;BME280;69007;48.978;18.066;2023-04-23T03:42:43;97210.69;;;8.71;95.04
46768;BME280;69007;48.978;18.066;2023-04-23T03:45:10;97199.28;;;8.69;94.96
46768;BME280;69007;48.978;18.066;2023-04-23T03:47:35;97197.88;;;8.61;94.81
46768;BME280;69007;48.978;18.066;2023-04-23T03:50:01;97212.81;;;8.63;95.42
46768;BME280;69007;48.978;18.066;2023-04-23T03:52:26;97208.84;;;8.76;94.64
46768;BME280;69007;48.978;18.066;2023-04-23T03:54:52;97218.34;;;8.84;94.97
46768;BME280;69007;48.978;18.066;2023-04-23T03:57:17;97204.59;;;9.06;93.42
46768;BME280;69007;48.978;18.066;2023-04-23T03:59:42;97217.19;;;9.33;91.62
46768;BME280;69007;48.978;18.066;2023-04-23T04:02:08;97208.53;;;9.56;89.66
46768;BME280;69007;48.978;18.066;2023-04-23T04:04:33;97203.66;;;9.69;89.01
46768;BME280;69007;48.978;18.066;2023-04-23T04:06:58;97214.81;;;9.83;88.46
46768;BME280;69007;48.978;18.066;2023-04-23T04:09:25;97206.66;;;9.93;87.01
46768;BME280;69007;48.978;18.066;2023-04-23T04:11:52;97223.25;;;10.07;86.73
46768;BME280;69007;48.978;18.066;2023-04-23T04:14:18;97223.25;;;10.02;87.34
46768;BME280;69007;48.978;18.066;2023-04-23T04:16:43;97236.56;;;10.29;86.05
46768;BME280;69007;48.978;18.066;2023-04-23T04:19:08;97225.63;;;10.75;84.52
46768;BME280;69007;48.978;18.066;2023-04-23T04:21:34;97225.72;;;11.30;81.63
46768;BME280;69007;48.978;18.066;2023-04-23T04:23:59;97208.25;;;11.76;79.43
46768;BME280;69007;48.978;18.066;2023-04-23T04:26:26;97216.44;;;12.45;76.60
46768;BME280;69007;48.978;18.066;2023-04-23T04:28:52;97220.16;;;13.07;74.27
46768;BME280;69007;48.978;18.066;2023-04-23T04:31:17;97223.47;;;13.48;72.39
46768;BME280;69007;48.978;18.066;2023-04-23T04:33:44;97238.50;;;13.88;70.41
46768;BME280;69007;48.978;18.066;2023-04-23T04:36:10;97222.38;;;14.06;69.64
46768;BME280;69007;48.978;18.066;2023-04-23T04:38:37;97237.84;;;14.29;68.92
46768;BME280;69007;48.978;18.066;2023-04-23T04:41:03;97234.75;;;14.50;68.82
46768;BME280;69007;48.978;18.066;2023-04-23T04:43:29;97236.78;;;14.77;67.11
46768;BME280;69007;48.978;18.066;2023-04-23T04:45:56;97226.97;;;15.04;66.05
46768;BME280;69007;48.978;18.066;2023-04-23T04:48:23;97234.44;;;15.26;65.97
46768;BME280;69007;48.978;18.066;2023-04-23T04:50:49;97221.75;;;15.16;65.90
46768;BME280;69007;48.978;18.066;2023-04-23T04:53:14;97219.69;;;15.63;64.97
46768;BME280;69007;48.978;18.066;2023-04-23T04:55:40;97230.50;;;15.46;64.85
46768;BME280;69007;48.978;18.066;2023-04-23T04:58:06;97225.06;;;16.05;63.59
46768;BME280;69007;48.978;18.066;2023-04-23T05:00:31;97220.28;;;16.33;61.96
46768;BME280;69007;48.978;18.066;2023-04-23T05:02:57;97230.16;;;16.97;60.60
46768;BME280;69007;48.978;18.066;2023-04-23T05:05:24;97235.75;;;17.15;59.32
46768;BME280;69007;48.978;18.066;2023-04-23T05:07:50;97232.69;;;17.25;60.14
46768;BME280;69007;48.978;18.066;2023-04-23T05:10:15;97237.78;;;17.49;59.58
46768;BME280;69007;48.978;18.066;2023-04-23T05:12:42;97229.97;;;17.34;60.29
46768;BME280;69007;48.978;18.066;2023-04-23T05:15:08;97225.41;;;16.57;61.25
46768;BME280;69007;48.978;18.066;2023-04-23T05:17:34;97246.13;;;17.26;59.87
46768;BME280;69007;48.978;18.066;2023-04-23T05:19:59;97231.03;;;17.06;60.05
46768;BME280;69007;48.978;18.066;2023-04-23T05:22:25;97222.56;;;17.34;59.37
46768;BME280;69007;48.978;18.066;2023-04-23T05:24:51;97247.81;;;16.73;59.74
46768;BME280;69007;48.978;18.066;2023-04-23T05:27:17;97238.31;;;16.48;60.25
46768;BME280;69007;48.978;18.066;2023-04-23T05:29:42;97234.84;;;16.43;60.94
46768;BME280;69007;48.978;18.066;2023-04-23T05:32:08;97242.56;;;16.86;59.72
46768;BME280;69007;48.978;18.066;2023-04-23T05:34:33;97223.72;;;17.02;58.84
46768;BME280;69007;48.978;18.066;2023-04-23T05:36:59;97217.06;;;16.94;59.20
46768;BME280;69007;48.978;18.066;2023-04-23T05:39:24;97218.75;;;17.12;59.21
46768;BME280;69007;48.978;18.066;2023-04-23T05:41:50;97237.47;;;17.59;58.32
46768;BME280;69007;48.978;18.066;2023-04-23T05:44:15;97229.44;;;18.41;57.29
46768;BME280;69007;48.978;18.066;2023-04-23T05:46:40;97234.03;;;19.62;53.32
46768;BME280;69007;48.978;18.066;2023-04-23T05:49:06;97222.47;;;19.39;53.74
46768;BME280;69007;48.978;18.066;2023-04-23T05:51:31;97224.84;;;19.19;53.81
46768;BME280;69007;48.978;18.066;2023-04-23T05:53:57;97231.06;;;18.34;56.39
46768;BME280;69007;48.978;18.066;2023-04-23T05:56:22;97210.06;;;18.85;55.86
46768;BME280;69007;48.978;18.066;2023-04-23T05:58:47;97235.50;;;19.59;54.44
46768;BME280;69007;48.978;18.066;2023-04-23T06:01:13;97230.41;;;20.33;52.89
46768;BME280;69007;48.978;18.066;2023-04-23T06:03:38;97231.28;;;20.79;51.22
46768;BME280;69007;48.978;18.066;2023-04-23T06:06:06;97233.59;;;20.90;51.64
46768;BME280;69007;48.978;18.066;2023-04-23T06:08:32;97225.69;;;20.67;52.17
46768;BME280;69007;48.978;18.066;2023-04-23T06:10:57;97236.66;;;20.42;53.66
46768;BME280;69007;48.978;18.066;2023-04-23T06:13:23;97232.03;;;21.26;51.21
46768;BME280;69007;48.978;18.066;2023-04-23T06:15:48;97252.09;;;21.10;51.57
46768;BME280;69007;48.978;18.066;2023-04-23T06:18:14;97244.75;;;20.81;52.47
46768;BME280;69007;48.978;18.066;2023-04-23T06:20:39;97237.31;;;21.31;51.51
46768;BME280;69007;48.978;18.066;2023-04-23T06:23:05;97232.72;;;21.10;51.77
46768;BME280;69007;48.978;18.066;2023-04-23T06:25:30;97223.75;;;21.50;50.82
46768;BME280;69007;48.978;18.066;2023-04-23T06:27:56;97239.34;;;22.08;49.41
46768;BME280;69007;48.978;18.066;2023-04-23T06:30:22;97233.19;;;21.49;50.32
46768;BME280;69007;48.978;18.066;2023-04-23T06:32:48;97236.31;;;21.35;50.13
46768;BME280;69007;48.978;18.066;2023-04-23T06:37:39;97229.81;;;20.61;48.28
46768;BME280;69007;48.978;18.066;2023-04-23T06:40:05;97223.66;;;20.10;45.66
46768;BME280;69007;48.978;18.066;2023-04-23T06:42:31;97230.22;;;19.96;47.00
46768;BME280;69007;48.978;18.066;2023-04-23T06:44:56;97232.41;;;20.12;46.59
46768;BME280;69007;48.978;18.066;2023-04-23T06:47:23;97236.81;;;20.58;45.22
46768;BME280;69007;48.978;18.066;2023-04-23T06:49:48;97246.22;;;20.66;44.99
46768;BME280;69007;48.978;18.066;2023-04-23T06:52:14;97232.38;;;21.37;43.37
46768;BME280;69007;48.978;18.066;2023-04-23T06:54:40;97227.53;;;21.21;43.54
46768;BME280;69007;48.978;18.066;2023-04-23T06:57:05;97215.50;;;21.79;42.64
46768;BME280;69007;48.978;18.066;2023-04-23T06:59:31;97236.56;;;22.08;41.73
46768;BME280;69007;48.978;18.066;2023-04-23T07:01:56;97214.16;;;22.54;40.86
46768;BME280;69007;48.978;18.066;2023-04-23T07:04:21;97229.50;;;22.51;42.53
46768;BME280;69007;48.978;18.066;2023-04-23T07:06:47;97206.28;;;22.56;41.85
46768;BME280;69007;48.978;18.066;2023-04-23T07:09:12;97224.66;;;22.48;41.37
46768;BME280;69007;48.978;18.066;2023-04-23T07:11:37;97213.31;;;22.25;41.89
46768;BME280;69007;48.978;18.066;2023-04-23T07:14:03;97201.50;;;22.00;42.34
46768;BME280;69007;48.978;18.066;2023-04-23T07:16:28;97223.81;;;21.05;44.32
46768;BME280;69007;48.978;18.066;2023-04-23T07:18:57;97225.06;;;20.95;45.03
46768;BME280;69007;48.978;18.066;2023-04-23T07:21:23;97223.38;;;21.03;45.74
46768;BME280;69007;48.978;18.066;2023-04-23T07:23:52;97202.84;;;21.04;44.74
46768;BME280;69007;48.978;18.066;2023-04-23T07:26:18;97197.94;;;20.09;45.86
46768;BME280;69007;48.978;18.066;2023-04-23T07:28:43;97200.38;;;20.11;47.79
46768;BME280;69007;48.978;18.066;2023-04-23T07:31:11;97211.84;;;20.55;46.48
46768;BME280;69007;48.978;18.066;2023-04-23T07:33:36;97207.19;;;20.68;45.52
46768;BME280;69007;48.978;18.066;2023-04-23T07:36:02;97222.31;;;20.83;47.46
46768;BME280;69007;48.978;18.066;2023-04-23T07:38:27;97221.00;;;20.80;45.68
46768;BME280;69007;48.978;18.066;2023-04-23T07:40:52;97203.75;;;20.16;47.38
46768;BME280;69007;48.978;18.066;2023-04-23T07:43:17;97196.78;;;20.31;47.25
46768;BME280;69007;48.978;18.066;2023-04-23T07:45:43;97222.91;;;20.34;46.02
46768;BME280;69007;48.978;18.066;2023-04-23T07:48:08;97215.25;;;19.55;47.02
46768;BME280;69007;48.978;18.066;2023-04-23T07:50:34;97215.06;;;19.51;47.52
46768;BME280;69007;48.978;18.066;2023-04-23T07:52:59;97220.69;;;19.04;48.11
46768;BME280;69007;48.978;18.066;2023-04-23T07:55:24;97217.75;;;19.39;47.79
46768;BME280;69007;48.978;18.066;2023-04-23T07:57:50;97205.00;;;18.87;46.62
46768;BME280;69007;48.978;18.066;2023-04-23T08:00:15;97206.31;;;18.81;48.18
46768;BME280;69007;48.978;18.066;2023-04-23T08:02:42;97213.22;;;19.34;47.56
46768;BME280;69007;48.978;18.066;2023-04-23T08:05:09;97215.00;;;19.09;47.46
46768;BME280;69007;48.978;18.066;2023-04-23T08:07:34;97206.19;;;18.69;47.42
46768;BME280;69007;48.978;18.066;2023-04-23T08:10:00;97196.88;;;18.35;48.62
46768;BME280;69007;48.978;18.066;2023-04-23T08:12:30;97215.16;;;18.39;49.96
46768;BME280;69007;48.978;18.066;2023-04-23T08:14:55;97191.69;;;18.24;48.63
46768;BME280;69007;48.978;18.066;2023-04-23T08:17:21;97200.13;;;18.19;46.82
46768;BME280;69007;48.978;18.066;2023-04-23T08:19:46;97201.94;;;18.07;50.43
46768;BME280;69007;48.978;18.066;2023-04-23T08:22:11;97185.22;;;18.20;49.47
46768;BME280;69007;48.978;18.066;2023-04-23T08:24:37;97171.16;;;18.04;48.64
46768;BME280;69007;48.978;18.066;2023-04-23T08:27:03;97195.59;;;18.23;49.44
46768;BME280;69007;48.978;18.066;2023-04-23T08:29:28;97193.97;;;18.22;49.75
46768;BME280;69007;48.978;18.066;2023-04-23T08:31:54;97205.63;;;18.37;51.57
46768;BME280;69007;48.978;18.066;2023-04-23T08:34:19;97205.75;;;18.49;49.43
46768;BME280;69007;48.978;18.066;2023-04-23T09:54:28;97163.00;;;18.43;55.56
46768;BME280;69007;48.978;18.066;2023-04-23T09:56:54;97132.38;;;18.36;49.45
46768;BME280;69007;48.978;18.066;2023-04-23T09:59:27;97148.91;;;18.45;52.39
46768;BME280;69007;48.978;18.066;2023-04-23T10:01:53;97135.22;;;17.92;52.22
46768;BME280;69007;48.978;18.066;2023-04-23T10:04:23;97134.38;;;18.09;52.03
46768;BME280;69007;48.978;18.066;2023-04-23T10:06:59;97133.44;;;17.96;48.93
46768;BME280;69007;48.978;18.066;2023-04-23T10:09:26;97135.50;;;18.08;46.36
46768;BME280;69007;48.978;18.066;2023-04-23T10:11:55;97139.19;;;18.38;49.22
46768;BME280;69007;48.978;18.066;2023-04-23T10:14:21;97128.03;;;18.26;45.13
46768;BME280;69007;48.978;18.066;2023-04-23T10:16:49;97094.78;;;18.31;49.02
46768;BME280;69007;48.978;18.066;2023-04-23T10:19:17;97099.56;;;18.04;46.45
46768;BME280;69007;48.978;18.066;2023-04-23T10:21:45;97119.13;;;18.20;46.39
46768;BME280;69007;48.978;18.066;2023-04-23T10:24:12;97127.50;;;18.41;49.52
46768;BME280;69007;48.978;18.066;2023-04-23T10:26:41;97102.91;;;18.28;47.27
46768;BME280;69007;48.978;18.066;2023-04-23T10:29:12;97128.03;;;18.26;50.53
46768;BME280;69007;48.978;18.066;2023-04-23T10:31:40;97115.91;;;18.18;47.96
46768;BME280;69007;48.978;18.066;2023-04-23T10:34:11;97106.22;;;18.51;51.55
46768;BME280;69007;48.978;18.066;2023-04-23T10:36:37;97114.38;;;18.77;47.61
46768;BME280;69007;48.978;18.066;2023-04-23T10:39:03;97117.09;;;18.47;46.70
46768;BME280;69007;48.978;18.066;2023-04-23T10:41:37;97124.16;;;18.27;46.19
46768;BME280;69007;48.978;18.066;2023-04-23T10:44:04;97077.88;;;18.03;44.19
46768;BME280;69007;48.978;18.066;2023-04-23T10:46:30;97101.38;;;18.48;46.23
46768;BME280;69007;48.978;18.066;2023-04-23T10:49:09;97087.66;;;18.39;45.88
46768;BME280;69007;48.978;18.066;2023-04-23T10:51:35;97116.75;;;18.57;45.51
46768;BME280;69007;48.978;18.066;2023-04-23T10:54:04;97093.16;;;18.39;44.36
46768;BME280;69007;48.978;18.066;2023-04-23T10:56:30;97114.16;;;18.52;46.80
46768;BME280;69007;48.978;18.066;2023-04-23T10:58:56;97109.81;;;18.42;43.56
46768;BME280;69007;48.978;18.066;2023-04-23T11:01:26;97148.19;;;18.56;44.86
46768;BME280;69007;48.978;18.066;2023-04-23T11:03:52;97106.75;;;18.83;42.93
46768;BME280;69007;48.978;18.066;2023-04-23T11:07:08;97105.09;;;18.99;45.16
46768;BME280;69007;48.978;18.066;2023-04-23T11:09:40;97121.72;;;18.64;42.66
46768;BME280;69007;48.978;18.066;2023-04-23T11:12:09;97071.34;;;18.25;43.04
46768;BME280;69007;48.978;18.066;2023-04-23T11:14:56;97096.94;;;18.64;42.50
46768;BME280;69007;48.978;18.066;2023-04-23T11:20:10;97088.28;;;18.83;44.68
46768;BME280;69007;48.978;18.066;2023-04-23T11:25:10;97081.13;;;19.12;43.49
46768;BME280;69007;48.978;18.066;2023-04-23T11:27:42;97092.38;;;19.07;44.62
46768;BME280;69007;48.978;18.066;2023-04-23T11:30:13;97057.31;;;18.86;44.39
46768;BME280;69007;48.978;18.066;2023-04-23T11:32:40;97090.72;;;18.85;44.63
46768;BME280;69007;48.978;18.066;2023-04-23T11:35:06;97091.56;;;19.06;45.32
46768;BME280;69007;48.978;18.066;2023-04-23T11:37:37;97049.84;;;18.87;42.72
46768;BME280;69007;48.978;18.066;2023-04-23T11:40:08;97075.09;;;19.19;43.08
46768;BME280;69007;48.978;18.066;2023-04-23T11:42:48;97093.56;;;18.97;43.48
46768;BME280;69007;48.978;18.066;2023-04-23T11:45:24;97063.34;;;18.71;45.74
46768;BME280;69007;48.978;18.066;2023-04-23T11:47:55;97063.91;;;19.15;47.84
46768;BME280;69007;48.978;18.066;2023-04-23T11:50:26;97075.09;;;18.98;44.40
46768;BME280;69007;48.978;18.066;2023-04-23T11:52:52;97077.50;;;18.99;47.21
46768;BME280;69007;48.978;18.066;2023-04-23T11:55:18;97037.81;;;18.62;48.40
46768;BME280;69007;48.978;18.066;2023-04-23T11:57:46;97062.66;;;18.83;48.17
46768;BME280;69007;48.978;18.066;2023-04-23T12:03:09;97080.97;;;18.87;46.27
46768;BME280;69007;48.978;18.066;2023-04-23T12:05:39;97091.19;;;18.87;47.80
46768;BME280;69007;48.978;18.066;2023-04-23T12:08:10;97059.88;;;18.91;48.34
46768;BME280;69007;48.978;18.066;2023-04-23T12:13:16;97058.53;;;18.98;48.15
46768;BME280;69007;48.978;18.066;2023-04-23T12:15:50;97058.47;;;18.76;47.79
46768;BME280;69007;48.978;18.066;2023-04-23T12:18:16;97047.78;;;18.75;49.86
46768;BME280;69007;48.978;18.066;2023-04-23T12:20:42;97072.22;;;18.85;50.31
46768;BME280;69007;48.978;18.066;2023-04-23T12:23:08;97056.97;;;18.79;50.38
46768;BME280;69007;48.978;18.066;2023-04-23T12:25:34;97022.91;;;18.92;49.37
46768;BME280;69007;48.978;18.066;2023-04-23T12:28:01;97053.88;;;19.10;47.19
46768;BME280;69007;48.978;18.066;2023-04-23T12:30:28;97068.84;;;19.09;50.33
46768;BME280;69007;48.978;18.066;2023-04-23T12:33:01;97032.88;;;18.76;48.57
46768;BME280;69007;48.978;18.066;2023-04-23T12:38:05;97050.19;;;19.06;51.39
46768;BME280;69007;48.978;18.066;2023-04-23T12:40:31;97061.50;;;19.34;48.26
46768;BME280;69007;48.978;18.066;2023-04-23T12:42:56;97040.66;;;19.46;47.05
46768;BME280;69007;48.978;18.066;2023-04-23T12:45:22;97045.75;;;19.56;48.17
46768;BME280;69007;48.978;18.066;2023-04-23T12:47:47;97011.63;;;19.73;47.68
46768;BME280;69007;48.978;18.066;2023-04-23T12:50:12;96995.81;;;19.49;48.69
46768;BME280;69007;48.978;18.066;2023-04-23T12:52:38;97041.91;;;19.48;49.45
46768;BME280;69007;48.978;18.066;2023-04-23T12:55:03;97009.59;;;19.15;50.61
46768;BME280;69007;48.978;18.066;2023-04-23T12:57:30;97011.25;;;19.08;48.13
46768;BME280;69007;48.978;18.066;2023-04-23T12:59:55;97044.28;;;19.17;48.32
46768;BME280;69007;48.978;18.066;2023-04-23T13:02:21;97024.44;;;19.23;48.01
46768;BME280;69007;48.978;18.066;2023-04-23T13:04:47;97044.22;;;19.25;51.86
46768;BME280;69007;48.978;18.066;2023-04-23T13:07:12;97026.59;;;19.39;50.45
46768;BME280;69007;48.978;18.066;2023-04-23T13:09:38;97018.72;;;19.28;50.71
46768;BME280;69007;48.978;18.066;2023-04-23T13:12:03;96984.41;;;19.17;50.91
46768;BME280;69007;48.978;18.066;2023-04-23T13:14:28;97014.75;;;19.17;47.90
46768;BME280;69007;48.978;18.066;2023-04-23T13:16:56;96985.38;;;19.00;50.77
46768;BME280;69007;48.978;18.066;2023-04-23T13:19:22;97021.22;;;19.21;49.97
46768;BME280;69007;48.978;18.066;2023-04-23T13:21:47;97016.25;;;19.14;51.79
46768;BME280;69007;48.978;18.066;2023-04-23T13:24:13;96990.06;;;19.00;48.71
46768;BME280;69007;48.978;18.066;2023-04-23T13:26:38;97019.66;;;19.32;49.72
46768;BME280;69007;48.978;18.066;2023-04-23T13:29:04;97006.22;;;19.31;48.23
46768;BME280;69007;48.978;18.066;2023-04-23T13:31:30;96990.97;;;19.46;48.88
46768;BME280;69007;48.978;18.066;2023-04-23T13:33:55;97005.97;;;19.24;48.77
46768;BME280;69007;48.978;18.066;2023-04-23T13:36:21;96975.53;;;18.90;47.58
46768;BME280;69007;48.978;18.066;2023-04-23T13:38:47;97012.28;;;19.24;47.35
46768;BME280;69007;48.978;18.066;2023-04-23T13:41:12;96966.06;;;19.00;47.26
46768;BME280;69007;48.978;18.066;2023-04-23T13:43:38;96979.00;;;19.42;50.17
46768;BME280;69007;48.978;18.066;2023-04-23T13:46:03;96990.34;;;19.07;47.26
46768;BME280;69007;48.978;18.066;2023-04-23T13:48:29;96973.28;;;19.47;49.42
46768;BME280;69007;48.978;18.066;2023-04-23T13:50:59;96987.34;;;19.66;50.25
46768;BME280;69007;48.978;18.066;2023-04-23T13:53:25;96985.00;;;19.77;48.55
46768;BME280;69007;48.978;18.066;2023-04-23T13:55:52;96981.69;;;19.50;46.45
46768;BME280;69007;48.978;18.066;2023-04-23T13:58:18;96959.69;;;19.42;48.69
46768;BME280;69007;48.978;18.066;2023-04-23T14:00:43;96957.63;;;19.39;44.85
46768;BME280;69007;48.978;18.066;2023-04-23T14:03:09;96961.78;;;19.45;43.05
46768;BME280;69007;48.978;18.066;2023-04-23T14:05:34;96975.97;;;19.56;46.22
46768;BME280;69007;48.978;18.066;2023-04-23T14:08:00;96972.56;;;19.38;46.82
46768;BME280;69007;48.978;18.066;2023-04-23T14:10:26;96939.41;;;19.25;47.14
46768;BME280;69007;48.978;18.066;2023-04-23T14:12:51;96966.25;;;19.16;47.08
46768;BME280;69007;48.978;18.066;2023-04-23T14:15:18;96937.41;;;18.71;44.56
46768;BME280;69007;48.978;18.066;2023-04-23T14:17:44;96965.88;;;18.84;45.64
46768;BME280;69007;48.978;18.066;2023-04-23T14:20:10;96942.88;;;19.01;48.99
46768;BME280;69007;48.978;18.066;2023-04-23T14:22:36;96939.50;;;18.95;47.85